Terminal Aerodrome Forecast
Issued by NWS

Home | Current Version | Previous Version | Text Only | Print | Product List | Glossary On
Versions: 1 2 3 4 5 6 7 8 9 10 11 12 13 14 15 16
000
FTAK31 PAJN 261127
TAFASI
TAF
PASI 261127Z 2612/2712 00000KT P6SM VCSH FEW005 BKN015 OVC020
      TEMPO 2612/2615 FEW004 OVC008
     FM261500 29004KT P6SM VCSH OVC015
     FM261800 25005KT P6SM -SHRA OVC015
     FM262300 28011KT P6SM VCSH BKN015 BKN030 OVC050
     FM270300 29007KT P6SM VCSH SCT015 BKN030 OVC050=

USA.gov is the U.S. government's official web portal to all federal, state and local government web resources and services.